createdAt,value
2022-08-16T15:27:27.734Z,1005.86
2022-08-16T15:28:31.559Z,1005.81
2022-08-16T15:29:27.655Z,1005.77
2022-08-16T15:30:48.157Z,1005.75
2022-08-16T15:31:28.612Z,1005.77
2022-08-16T15:32:27.575Z,1005.72
2022-08-16T15:33:27.565Z,1005.69
2022-08-16T15:34:27.548Z,1005.74
2022-08-16T15:35:27.544Z,1005.74
2022-08-16T15:36:28.074Z,1005.77
2022-08-16T15:37:27.518Z,1005.73
2022-08-16T15:38:55.117Z,1005.73
2022-08-16T15:39:37.126Z,1005.74
2022-08-16T15:40:35.164Z,1005.74
2022-08-16T15:41:28.469Z,1005.74
2022-08-16T15:42:28.872Z,1005.71
2022-08-16T15:43:38.862Z,1005.69
2022-08-16T15:44:28.447Z,1005.70
2022-08-16T15:45:27.432Z,1005.72
2022-08-16T15:46:55.627Z,1005.71
2022-08-16T15:47:28.375Z,1005.71
2022-08-16T15:48:28.657Z,1005.70
2022-08-16T15:49:37.369Z,1005.68
2022-08-16T15:50:28.382Z,1005.70
2022-08-16T15:51:27.320Z,1005.75
2022-08-16T15:52:28.954Z,1005.71
2022-08-16T15:53:27.338Z,1005.68
2022-08-16T15:54:30.915Z,1005.70
2022-08-16T15:55:34.754Z,1005.69
2022-08-16T15:56:28.370Z,1005.65
2022-08-16T15:57:27.258Z,1005.71
2022-08-16T15:58:35.321Z,1005.73
2022-08-16T15:59:28.227Z,1005.71
2022-08-16T16:00:28.329Z,1005.70
2022-08-16T16:01:27.241Z,1005.73
2022-08-16T16:02:30.940Z,1005.70
2022-08-16T16:03:27.182Z,1005.69
2022-08-16T16:04:27.157Z,1005.67
2022-08-16T16:05:27.158Z,1005.67
2022-08-16T16:06:28.147Z,1005.68
2022-08-16T16:07:27.149Z,1005.69
2022-08-16T16:08:27.422Z,1005.70
2022-08-16T16:09:36.812Z,1005.70
2022-08-16T16:10:29.323Z,1005.68
2022-08-16T16:11:27.094Z,1005.71
2022-08-16T16:12:54.177Z,1005.72
2022-08-16T16:13:28.110Z,1005.69
2022-08-16T16:14:27.082Z,1005.73
2022-08-16T16:15:29.347Z,1005.80
2022-08-16T16:16:27.133Z,1005.76
2022-08-16T16:17:27.021Z,1005.73
2022-08-16T16:18:27.121Z,1005.73
2022-08-16T16:19:26.978Z,1005.75
2022-08-16T16:20:28.068Z,1005.71
2022-08-16T16:21:27.029Z,1005.72
2022-08-16T16:22:27.284Z,1005.71
2022-08-16T16:23:26.917Z,1005.73
2022-08-16T16:24:30.811Z,1005.77
2022-08-16T16:25:26.911Z,1005.73
2022-08-16T16:26:27.087Z,1005.76
2022-08-16T16:27:27.014Z,1005.74
2022-08-16T16:29:06.223Z,1005.74
2022-08-16T16:29:28.685Z,1005.76
2022-08-16T16:30:37.388Z,1005.76
2022-08-16T16:31:28.950Z,1005.73
2022-08-16T16:32:34.374Z,1005.73
2022-08-16T16:33:27.790Z,1005.80
2022-08-16T16:34:32.221Z,1005.79
2022-08-16T16:35:27.786Z,1005.75
2022-08-16T16:36:29.638Z,1005.78
2022-08-16T16:37:26.880Z,1005.78
2022-08-16T16:38:27.840Z,1005.79
2022-08-16T16:39:26.823Z,1005.77
2022-08-16T16:40:32.707Z,1005.78
2022-08-16T16:41:27.739Z,1005.80
2022-08-16T16:42:29.234Z,1005.78
2022-08-16T16:43:31.355Z,1005.80
2022-08-16T16:44:33.547Z,1005.74
2022-08-16T16:45:34.616Z,1005.76
2022-08-16T16:46:40.110Z,1005.79
2022-08-16T16:47:27.659Z,1005.77
2022-08-16T16:48:34.467Z,1005.76
2022-08-16T16:49:27.638Z,1005.75
2022-08-16T16:50:27.258Z,1005.75
2022-08-16T16:51:27.863Z,1005.75
2022-08-16T16:52:44.372Z,1005.79
2022-08-16T16:53:31.830Z,1005.77
2022-08-16T16:54:28.531Z,1005.83
2022-08-16T16:55:26.676Z,1005.80
2022-08-16T16:56:31.115Z,1005.78
2022-08-16T16:57:27.529Z,1005.79
2022-08-16T16:58:29.046Z,1005.82
2022-08-16T16:59:28.491Z,1005.80
2022-08-16T17:00:38.355Z,1005.84
2022-08-16T17:01:35.026Z,1005.85
2022-08-16T17:02:40.930Z,1005.81
2022-08-16T17:03:27.454Z,1005.80
2022-08-16T17:04:31.286Z,1005.84
2022-08-16T17:05:27.443Z,1005.87
2022-08-16T17:06:26.653Z,1005.83
2022-08-16T17:07:26.380Z,1005.83
2022-08-16T17:08:26.778Z,1005.81
2022-08-16T17:09:26.444Z,1005.84
2022-08-16T17:10:46.209Z,1005.84
2022-08-16T17:11:27.341Z,1005.86
2022-08-16T17:13:27.531Z,1005.84
2022-08-16T17:14:33.765Z,1005.88
2022-08-16T17:15:27.303Z,1005.88
2022-08-16T17:16:32.974Z,1005.88
2022-08-16T17:17:27.665Z,1005.89
2022-08-16T17:19:14.590Z,1005.87
2022-08-16T17:19:31.823Z,1005.84
2022-08-16T17:20:26.225Z,1005.83
2022-08-16T17:21:26.248Z,1005.82
2022-08-16T17:22:32.909Z,1005.83
2022-08-16T17:23:58.007Z,1005.84
2022-08-16T17:24:31.368Z,1005.83
2022-08-16T17:25:27.213Z,1005.85
2022-08-16T17:26:29.944Z,1005.84
2022-08-16T17:29:00.197Z,1005.87
2022-08-16T17:29:30.781Z,1005.84
2022-08-16T17:30:44.587Z,1005.86
2022-08-16T17:31:40.621Z,1005.84
2022-08-16T17:32:34.383Z,1005.84
2022-08-16T17:33:27.170Z,1005.83
2022-08-16T17:34:29.040Z,1005.88
2022-08-16T17:35:34.204Z,1005.83
2022-08-16T17:36:36.352Z,1005.79
2022-08-16T17:37:42.381Z,1005.90
2022-08-16T17:38:33.067Z,1005.87
2022-08-16T17:39:26.339Z,1005.87
2022-08-16T17:39:26.847Z,1005.85
2022-08-16T17:39:29.707Z,1005.89
2022-08-16T17:40:47.077Z,1005.84
2022-08-16T17:41:27.028Z,1005.88
2022-08-16T17:42:25.965Z,1005.86
2022-08-16T17:43:25.865Z,1005.86
2022-08-16T17:44:25.903Z,1005.89
2022-08-16T17:45:25.922Z,1005.87
2022-08-16T17:46:41.173Z,1005.87
2022-08-16T17:47:26.924Z,1005.86
2022-08-16T17:48:25.860Z,1005.90
2022-08-16T17:49:25.838Z,1005.88
2022-08-16T17:50:25.919Z,1005.89
2022-08-16T17:51:25.758Z,1005.91
2022-08-16T17:52:25.904Z,1005.95
2022-08-16T17:53:26.066Z,1005.93
2022-08-16T17:54:30.675Z,1005.95
2022-08-16T17:55:27.041Z,1005.92
2022-08-16T17:56:25.788Z,1005.93
2022-08-16T17:57:25.867Z,1005.97
2022-08-16T17:58:25.903Z,1005.98
2022-08-16T17:59:25.719Z,1005.99
2022-08-16T18:00:25.789Z,1005.99
2022-08-16T18:01:25.743Z,1005.97
2022-08-16T18:02:43.486Z,1005.97
2022-08-16T18:04:06.907Z,1005.97
2022-08-16T18:04:48.007Z,1005.95
2022-08-16T18:05:26.742Z,1006.02
2022-08-16T18:06:25.633Z,1006.04
2022-08-16T18:07:25.649Z,1005.99
2022-08-16T18:08:25.619Z,1006.03
2022-08-16T18:09:26.690Z,1006.02
2022-08-16T18:10:33.143Z,1006.04
2022-08-16T18:11:26.576Z,1006.05
2022-08-16T18:12:50.957Z,1006.09
2022-08-16T18:13:26.517Z,1006.05
2022-08-16T18:14:50.360Z,1006.07
2022-08-16T18:15:26.647Z,1006.08
2022-08-16T18:16:25.542Z,1006.11
2022-08-16T18:17:25.458Z,1006.10
2022-08-16T18:18:26.117Z,1006.14
2022-08-16T18:19:25.422Z,1006.11
2022-08-16T18:20:25.462Z,1006.09
2022-08-16T18:21:26.133Z,1006.13
2022-08-16T18:22:30.385Z,1006.14
2022-08-16T18:23:25.437Z,1006.13
2022-08-16T18:24:25.358Z,1006.12
2022-08-16T18:25:25.402Z,1006.15
2022-08-16T18:26:25.357Z,1006.14
2022-08-16T18:27:27.285Z,1006.14
2022-08-16T18:28:25.340Z,1006.17
2022-08-16T18:29:25.358Z,1006.16
2022-08-16T18:30:25.281Z,1006.18
2022-08-16T18:31:25.322Z,1006.16
2022-08-16T18:32:25.367Z,1006.15
2022-08-16T18:33:25.317Z,1006.21
2022-08-16T18:34:25.282Z,1006.21
2022-08-16T18:35:33.797Z,1006.23
2022-08-16T18:36:25.181Z,1006.24
2022-08-16T18:37:25.241Z,1006.24
2022-08-16T18:38:25.184Z,1006.24
2022-08-16T18:39:25.404Z,1006.30
2022-08-16T18:40:25.158Z,1006.29
2022-08-16T18:41:34.034Z,1006.32
2022-08-16T18:42:25.157Z,1006.30
2022-08-16T18:44:22.693Z,1006.35
2022-08-16T18:44:31.008Z,1006.37
2022-08-16T18:45:26.125Z,1006.35
2022-08-16T18:46:26.077Z,1006.41
2022-08-16T18:47:25.145Z,1006.40
2022-08-16T18:48:25.098Z,1006.42
2022-08-16T18:49:25.114Z,1006.41
2022-08-16T18:50:25.072Z,1006.42
2022-08-16T18:51:25.563Z,1006.44
2022-08-16T18:52:25.866Z,1006.44
2022-08-16T18:53:25.011Z,1006.42
2022-08-16T18:54:24.983Z,1006.43
2022-08-16T18:55:25.000Z,1006.40
2022-08-16T18:56:24.981Z,1006.42
2022-08-16T18:57:25.981Z,1006.45
2022-08-16T18:58:24.941Z,1006.44
2022-08-16T18:59:24.982Z,1006.42
2022-08-16T19:00:24.970Z,1006.41
2022-08-16T19:01:24.911Z,1006.39
2022-08-16T19:02:57.193Z,1006.38
2022-08-16T19:03:25.867Z,1006.40
2022-08-16T19:04:48.045Z,1006.39
2022-08-16T19:05:25.834Z,1006.37
2022-08-16T19:06:24.796Z,1006.39
2022-08-16T19:07:31.245Z,1006.42
2022-08-16T19:08:25.758Z,1006.42
2022-08-16T19:09:24.802Z,1006.42
2022-08-16T19:10:24.967Z,1006.43
2022-08-16T19:11:24.743Z,1006.42
2022-08-16T19:12:38.569Z,1006.46
2022-08-16T19:13:25.709Z,1006.52
2022-08-16T19:14:25.441Z,1006.53
2022-08-16T19:15:24.676Z,1006.59
2022-08-16T19:16:24.753Z,1006.59
2022-08-16T19:17:24.650Z,1006.58
2022-08-16T19:18:24.738Z,1006.56
2022-08-16T19:19:24.601Z,1006.61
2022-08-16T19:20:24.652Z,1006.60
2022-08-16T19:21:24.676Z,1006.55
2022-08-16T19:22:39.474Z,1006.59
2022-08-16T19:23:25.622Z,1006.58
2022-08-16T19:24:29.209Z,1006.57
2022-08-16T19:25:46.408Z,1006.61
2022-08-16T19:26:26.230Z,1006.57
2022-08-16T19:27:25.135Z,1006.60
2022-08-16T19:28:51.775Z,1006.61
2022-08-16T19:29:25.523Z,1006.65
2022-08-16T19:30:24.457Z,1006.63
2022-08-16T19:31:24.548Z,1006.65
2022-08-16T19:32:24.455Z,1006.64
2022-08-16T19:33:24.498Z,1006.60
2022-08-16T19:34:24.564Z,1006.60
2022-08-16T19:35:24.451Z,1006.64
2022-08-16T19:36:31.039Z,1006.68
2022-08-16T19:37:25.452Z,1006.70
2022-08-16T19:38:25.389Z,1006.72
2022-08-16T19:39:26.176Z,1006.77
2022-08-16T19:40:37.291Z,1006.78
2022-08-16T19:41:25.632Z,1006.78
2022-08-16T19:42:24.491Z,1006.83
2022-08-16T19:43:24.424Z,1006.82
2022-08-16T19:44:24.346Z,1006.84
2022-08-16T19:45:24.430Z,1006.83
2022-08-16T19:46:24.419Z,1006.85
2022-08-16T19:47:25.014Z,1006.86
2022-08-16T19:48:24.267Z,1006.82
2022-08-16T19:49:24.304Z,1006.86
2022-08-16T19:50:35.899Z,1006.86
2022-08-16T19:51:25.272Z,1006.86
2022-08-16T19:52:24.239Z,1006.93
2022-08-16T19:53:24.477Z,1006.93
2022-08-16T19:54:25.166Z,1006.93
2022-08-16T19:55:24.440Z,1006.94
2022-08-16T19:56:24.418Z,1006.96
2022-08-16T19:57:24.409Z,1006.94
2022-08-16T19:58:24.415Z,1006.98
2022-08-16T19:59:40.179Z,1006.98
2022-08-16T20:00:35.249Z,1006.99
2022-08-16T20:01:25.199Z,1007.01
2022-08-16T20:02:36.047Z,1007.01
2022-08-16T20:03:25.589Z,1006.99
2022-08-16T20:04:24.230Z,1007.01
2022-08-16T20:05:24.153Z,1007.01
2022-08-16T20:06:38.127Z,1007.02
2022-08-16T20:07:25.082Z,1007.06
2022-08-16T20:08:24.154Z,1007.10
2022-08-16T20:09:24.177Z,1007.08
2022-08-16T20:10:24.447Z,1007.12
2022-08-16T20:11:24.010Z,1007.12
2022-08-16T20:12:23.934Z,1007.13
2022-08-16T20:13:23.886Z,1007.14
2022-08-16T20:14:25.506Z,1007.14
2022-08-16T20:15:26.813Z,1007.17
2022-08-16T20:16:23.877Z,1007.22
2022-08-16T20:17:23.859Z,1007.25
2022-08-16T20:18:25.501Z,1007.30
2022-08-16T20:19:23.803Z,1007.26
2022-08-16T20:20:23.791Z,1007.29
2022-08-16T20:21:23.782Z,1007.33
2022-08-16T20:22:49.583Z,1007.30
2022-08-16T20:23:25.458Z,1007.34
2022-08-16T20:24:33.981Z,1007.36
2022-08-16T20:25:28.017Z,1007.33
2022-08-16T20:26:23.704Z,1007.34
2022-08-16T20:27:23.693Z,1007.32
2022-08-16T20:28:52.859Z,1007.32
2022-08-16T20:29:24.682Z,1007.31
2022-08-16T20:30:23.694Z,1007.33
2022-08-16T20:31:23.692Z,1007.34
2022-08-16T20:32:25.748Z,1007.37
2022-08-16T20:33:24.665Z,1007.36
2022-08-16T20:34:23.596Z,1007.38
2022-08-16T20:35:23.609Z,1007.37
2022-08-16T20:36:23.583Z,1007.41
2022-08-16T20:37:23.623Z,1007.40
2022-08-16T20:38:23.563Z,1007.39
2022-08-16T20:39:23.615Z,1007.40
2022-08-16T20:40:33.963Z,1007.41
2022-08-16T20:41:24.529Z,1007.42
2022-08-16T20:42:23.601Z,1007.42
2022-08-16T20:44:31.114Z,1007.43
2022-08-16T20:45:23.517Z,1007.44
2022-08-16T20:46:23.480Z,1007.46
2022-08-16T20:47:23.491Z,1007.50
2022-08-16T20:48:23.482Z,1007.46
2022-08-16T20:49:23.474Z,1007.49
2022-08-16T20:50:23.470Z,1007.45
2022-08-16T20:51:23.420Z,1007.43
2022-08-16T20:52:23.447Z,1007.45
2022-08-16T20:53:23.382Z,1007.48
2022-08-16T20:54:23.429Z,1007.48
2022-08-16T20:55:23.367Z,1007.48
2022-08-16T20:56:23.424Z,1007.49
2022-08-16T20:57:23.363Z,1007.47
2022-08-16T20:58:23.408Z,1007.51
2022-08-16T20:59:23.281Z,1007.51
2022-08-16T21:00:23.274Z,1007.48
2022-08-16T21:01:23.307Z,1007.49
2022-08-16T21:02:23.242Z,1007.50
2022-08-16T21:03:23.252Z,1007.51
2022-08-16T21:04:23.266Z,1007.57
2022-08-16T21:05:23.962Z,1007.58
2022-08-16T21:06:23.237Z,1007.57
2022-08-16T21:07:23.185Z,1007.60
2022-08-16T21:08:50.569Z,1007.57
2022-08-16T21:09:24.230Z,1007.56
2022-08-16T21:10:23.238Z,1007.54
2022-08-16T21:11:23.156Z,1007.54
2022-08-16T21:12:23.121Z,1007.54
2022-08-16T21:13:23.100Z,1007.54
2022-08-16T21:14:23.114Z,1007.57
2022-08-16T21:15:23.078Z,1007.50
2022-08-16T21:16:23.067Z,1007.53
2022-08-16T21:17:23.129Z,1007.55
2022-08-16T21:18:23.082Z,1007.59
2022-08-16T21:19:23.036Z,1007.59
2022-08-16T21:20:23.019Z,1007.58
2022-08-16T21:21:23.013Z,1007.55
2022-08-16T21:22:24.158Z,1007.54
2022-08-16T21:23:23.016Z,1007.53
2022-08-16T21:24:23.112Z,1007.53
2022-08-16T21:25:23.340Z,1007.50
2022-08-16T21:26:22.984Z,1007.51
2022-08-16T21:27:24.260Z,1007.48
2022-08-16T21:28:40.794Z,1007.51
2022-08-16T21:29:24.907Z,1007.51
2022-08-16T21:30:27.589Z,1007.52
2022-08-16T21:31:23.875Z,1007.53
2022-08-16T21:32:35.579Z,1007.51
2022-08-16T21:33:23.841Z,1007.52
2022-08-16T21:34:22.851Z,1007.51
2022-08-16T21:35:22.921Z,1007.49
2022-08-16T21:36:35.276Z,1007.48
2022-08-16T21:37:23.779Z,1007.50
2022-08-16T21:38:29.209Z,1007.49
2022-08-16T21:39:23.800Z,1007.49
2022-08-16T21:40:22.762Z,1007.49
2022-08-16T21:41:22.762Z,1007.50
2022-08-16T21:42:22.784Z,1007.52
2022-08-16T21:43:22.762Z,1007.52
2022-08-16T21:44:22.698Z,1007.53
2022-08-16T21:45:23.703Z,1007.51
2022-08-16T21:46:22.952Z,1007.56
2022-08-16T21:47:22.654Z,1007.49
2022-08-16T21:48:34.496Z,1007.46
2022-08-16T21:49:23.613Z,1007.44
2022-08-16T21:50:22.586Z,1007.44
2022-08-16T21:51:22.575Z,1007.43
2022-08-16T21:52:26.861Z,1007.43
2022-08-16T21:53:22.556Z,1007.41
2022-08-16T21:54:22.591Z,1007.43
2022-08-16T21:55:22.536Z,1007.44
2022-08-16T21:56:22.500Z,1007.46
2022-08-16T21:57:22.525Z,1007.46
2022-08-16T21:58:22.518Z,1007.48
2022-08-16T21:59:33.322Z,1007.43
2022-08-16T22:00:33.270Z,1007.48
2022-08-16T22:01:33.457Z,1007.47
2022-08-16T22:02:35.924Z,1007.47
2022-08-16T22:03:34.243Z,1007.50
2022-08-16T22:04:36.688Z,1007.48
2022-08-16T22:05:34.219Z,1007.47
2022-08-16T22:06:33.223Z,1007.46
2022-08-16T22:07:33.222Z,1007.48
2022-08-16T22:08:33.184Z,1007.47
2022-08-16T22:09:33.169Z,1007.47
2022-08-16T22:11:04.857Z,1007.51
2022-08-16T22:11:34.178Z,1007.45
2022-08-16T22:12:33.118Z,1007.49
2022-08-16T22:13:33.119Z,1007.48
2022-08-16T22:14:33.076Z,1007.44
2022-08-16T22:15:33.070Z,1007.44
2022-08-16T22:16:33.118Z,1007.42
2022-08-16T22:17:33.080Z,1007.38
2022-08-16T22:18:33.073Z,1007.40
2022-08-16T22:19:33.000Z,1007.41
2022-08-16T22:20:33.000Z,1007.42
2022-08-16T22:21:32.990Z,1007.44
2022-08-16T22:22:35.029Z,1007.44
2022-08-16T22:23:32.971Z,1007.48
2022-08-16T22:24:32.961Z,1007.46
2022-08-16T22:25:33.092Z,1007.52
2022-08-16T22:26:32.984Z,1007.54
2022-08-16T22:27:32.949Z,1007.55
2022-08-16T22:28:32.925Z,1007.58
2022-08-16T22:29:32.923Z,1007.56
2022-08-16T22:30:32.873Z,1007.61
2022-08-16T22:31:32.885Z,1007.60
2022-08-16T22:32:32.875Z,1007.59
2022-08-16T22:33:32.815Z,1007.63
2022-08-16T22:34:32.815Z,1007.63
2022-08-16T22:35:32.849Z,1007.59
2022-08-16T22:36:32.817Z,1007.56
2022-08-16T22:37:32.800Z,1007.55
2022-08-16T22:38:55.492Z,1007.57
2022-08-16T22:39:33.833Z,1007.56
2022-08-16T22:40:32.738Z,1007.63
2022-08-16T22:41:32.732Z,1007.61
2022-08-16T22:42:32.743Z,1007.62
2022-08-16T22:43:32.687Z,1007.64
2022-08-16T22:44:32.696Z,1007.68
2022-08-16T22:45:32.660Z,1007.65
2022-08-16T22:46:32.653Z,1007.66
2022-08-16T22:47:32.622Z,1007.64
2022-08-16T22:48:32.619Z,1007.66
2022-08-16T22:49:33.645Z,1007.64
2022-08-16T22:50:32.601Z,1007.61
2022-08-16T22:51:32.604Z,1007.62
2022-08-16T22:52:44.296Z,1007.63
2022-08-16T22:53:33.551Z,1007.64
2022-08-16T22:54:48.217Z,1007.60
2022-08-16T22:55:33.512Z,1007.59
2022-08-16T22:56:32.524Z,1007.58
2022-08-16T22:57:32.498Z,1007.57
2022-08-16T22:58:36.649Z,1007.55
2022-08-16T22:59:32.475Z,1007.47
2022-08-16T23:00:32.470Z,1007.47
2022-08-16T23:01:32.506Z,1007.51
2022-08-16T23:02:32.452Z,1007.50
2022-08-16T23:03:32.389Z,1007.51
2022-08-16T23:04:32.430Z,1007.51
2022-08-16T23:05:32.423Z,1007.49
2022-08-16T23:06:32.381Z,1007.54
2022-08-16T23:07:32.386Z,1007.53
2022-08-16T23:08:39.987Z,1007.51
2022-08-16T23:09:33.331Z,1007.54
2022-08-16T23:10:32.334Z,1007.49
2022-08-16T23:11:32.317Z,1007.51
2022-08-16T23:12:32.282Z,1007.47
2022-08-16T23:13:32.313Z,1007.46
2022-08-16T23:14:32.265Z,1007.44
2022-08-16T23:15:32.299Z,1007.47
2022-08-16T23:16:33.934Z,1007.44
2022-08-16T23:17:32.244Z,1007.47
2022-08-16T23:18:32.246Z,1007.46
2022-08-16T23:19:32.195Z,1007.43
2022-08-16T23:20:32.188Z,1007.43
2022-08-16T23:21:32.180Z,1007.41
2022-08-16T23:22:32.167Z,1007.39
2022-08-16T23:23:32.161Z,1007.39
2022-08-16T23:24:38.216Z,1007.35
2022-08-16T23:25:33.108Z,1007.35
2022-08-16T23:26:45.140Z,1007.34
2022-08-16T23:27:33.158Z,1007.39
2022-08-16T23:28:32.143Z,1007.38
2022-08-16T23:29:32.066Z,1007.45
2022-08-16T23:30:32.056Z,1007.43
2022-08-16T23:31:32.050Z,1007.47
2022-08-16T23:32:32.019Z,1007.44
2022-08-16T23:33:31.987Z,1007.44
2022-08-16T23:34:31.976Z,1007.49
2022-08-16T23:35:45.256Z,1007.46
2022-08-16T23:36:33.013Z,1007.43
2022-08-16T23:37:31.923Z,1007.43
2022-08-16T23:38:37.910Z,1007.38
2022-08-16T23:39:32.917Z,1007.41
2022-08-16T23:40:31.903Z,1007.34
2022-08-16T23:41:31.883Z,1007.33
2022-08-16T23:43:01.314Z,1007.30
2022-08-16T23:43:32.845Z,1007.29
2022-08-16T23:44:55.974Z,1007.27
2022-08-16T23:45:32.896Z,1007.28
2022-08-16T23:46:31.822Z,1007.29
2022-08-16T23:47:31.806Z,1007.27
2022-08-16T23:48:31.833Z,1007.28
2022-08-16T23:49:57.445Z,1007.28
2022-08-16T23:50:32.801Z,1007.29
2022-08-16T23:51:31.743Z,1007.33
2022-08-16T23:52:54.856Z,1007.33
2022-08-16T23:53:32.729Z,1007.35
2022-08-16T23:54:31.714Z,1007.35
2022-08-16T23:55:31.709Z,1007.38
2022-08-16T23:56:40.180Z,1007.36
2022-08-16T23:57:32.681Z,1007.34
2022-08-16T23:58:31.638Z,1007.38
2022-08-16T23:59:32.513Z,1007.35
